sensor_id;sensor_type;location;lat;lon;timestamp;P1;durP1;ratioP1;P2;durP2;ratioP2
51467;SDS011;37545;45.302;-122.946;2024-03-22T00:00:41;5.22;;;1.98;;
51467;SDS011;37545;45.302;-122.946;2024-03-22T00:03:11;9.35;;;3.15;;
51467;SDS011;37545;45.302;-122.946;2024-03-22T00:05:43;7.75;;;2.92;;
51467;SDS011;37545;45.302;-122.946;2024-03-22T00:08:11;5.78;;;1.90;;
51467;SDS011;37545;45.302;-122.946;2024-03-22T00:10:39;6.63;;;3.38;;
51467;SDS011;37545;45.302;-122.946;2024-03-22T00:13:07;7.55;;;3.25;;
51467;SDS011;37545;45.302;-122.946;2024-03-22T00:15:40;4.20;;;2.05;;
51467;SDS011;37545;45.302;-122.946;2024-03-22T00:18:08;5.82;;;2.00;;
51467;SDS011;37545;45.302;-122.946;2024-03-22T00:20:37;8.90;;;2.22;;
51467;SDS011;37545;45.302;-122.946;2024-03-22T00:23:10;6.50;;;2.20;;
51467;SDS011;37545;45.302;-122.946;2024-03-22T00:25:38;6.38;;;2.45;;
51467;SDS011;37545;45.302;-122.946;2024-03-22T00:28:08;4.35;;;1.70;;
51467;SDS011;37545;45.302;-122.946;2024-03-22T00:30:37;2.72;;;0.93;;
51467;SDS011;37545;45.302;-122.946;2024-03-22T00:33:04;3.38;;;1.42;;
51467;SDS011;37545;45.302;-122.946;2024-03-22T00:35:33;2.40;;;1.05;;
51467;SDS011;37545;45.302;-122.946;2024-03-22T00:38:00;3.20;;;1.33;;
51467;SDS011;37545;45.302;-122.946;2024-03-22T00:40:32;2.83;;;1.13;;
51467;SDS011;37545;45.302;-122.946;2024-03-22T00:43:00;3.13;;;1.20;;
51467;SDS011;37545;45.302;-122.946;2024-03-22T00:45:29;2.15;;;1.02;;
51467;SDS011;37545;45.302;-122.946;2024-03-22T00:47:56;1.00;;;0.70;;
51467;SDS011;37545;45.302;-122.946;2024-03-22T00:50:25;2.45;;;0.95;;
51467;SDS011;37545;45.302;-122.946;2024-03-22T00:52:52;3.25;;;1.00;;
51467;SDS011;37545;45.302;-122.946;2024-03-22T00:55:22;1.27;;;0.73;;
51467;SDS011;37545;45.302;-122.946;2024-03-22T00:57:51;2.72;;;1.00;;
51467;SDS011;37545;45.302;-122.946;2024-03-22T01:00:20;2.15;;;1.30;;
51467;SDS011;37545;45.302;-122.946;2024-03-22T01:02:55;1.73;;;1.00;;
51467;SDS011;37545;45.302;-122.946;2024-03-22T01:05:24;1.60;;;0.90;;
51467;SDS011;37545;45.302;-122.946;2024-03-22T01:07:52;1.52;;;1.02;;
51467;SDS011;37545;45.302;-122.946;2024-03-22T01:10:20;2.67;;;1.45;;
51467;SDS011;37545;45.302;-122.946;2024-03-22T01:12:48;2.30;;;1.35;;
51467;SDS011;37545;45.302;-122.946;2024-03-22T01:15:19;3.47;;;1.38;;
51467;SDS011;37545;45.302;-122.946;2024-03-22T01:17:46;3.97;;;1.27;;
51467;SDS011;37545;45.302;-122.946;2024-03-22T01:20:15;4.95;;;2.00;;
51467;SDS011;37545;45.302;-122.946;2024-03-22T01:22:42;3.75;;;1.65;;
51467;SDS011;37545;45.302;-122.946;2024-03-22T01:25:11;3.08;;;1.05;;
51467;SDS011;37545;45.302;-122.946;2024-03-22T01:27:38;1.77;;;0.90;;
51467;SDS011;37545;45.302;-122.946;2024-03-22T01:30:10;1.38;;;0.93;;
51467;SDS011;37545;45.302;-122.946;2024-03-22T01:32:39;3.47;;;1.40;;
51467;SDS011;37545;45.302;-122.946;2024-03-22T01:35:08;6.18;;;2.03;;
51467;SDS011;37545;45.302;-122.946;2024-03-22T01:37:36;3.38;;;1.17;;
51467;SDS011;37545;45.302;-122.946;2024-03-22T01:40:08;4.82;;;1.13;;
51467;SDS011;37545;45.302;-122.946;2024-03-22T01:42:36;3.33;;;1.23;;
51467;SDS011;37545;45.302;-122.946;2024-03-22T01:45:05;3.97;;;1.20;;
51467;SDS011;37545;45.302;-122.946;2024-03-22T01:47:32;3.75;;;1.00;;
51467;SDS011;37545;45.302;-122.946;2024-03-22T01:50:06;2.72;;;0.80;;
51467;SDS011;37545;45.302;-122.946;2024-03-22T01:52:38;2.75;;;0.40;;
51467;SDS011;37545;45.302;-122.946;2024-03-22T01:55:07;1.10;;;0.55;;
51467;SDS011;37545;45.302;-122.946;2024-03-22T01:57:35;1.38;;;0.70;;
51467;SDS011;37545;45.302;-122.946;2024-03-22T02:00:09;0.90;;;0.50;;
51467;SDS011;37545;45.302;-122.946;2024-03-22T02:02:37;1.27;;;0.60;;
51467;SDS011;37545;45.302;-122.946;2024-03-22T02:05:13;1.00;;;0.60;;
51467;SDS011;37545;45.302;-122.946;2024-03-22T02:07:41;2.80;;;0.88;;
51467;SDS011;37545;45.302;-122.946;2024-03-22T02:10:13;1.15;;;0.60;;
51467;SDS011;37545;45.302;-122.946;2024-03-22T02:12:41;1.08;;;0.50;;
51467;SDS011;37545;45.302;-122.946;2024-03-22T02:15:10;2.30;;;0.65;;
51467;SDS011;37545;45.302;-122.946;2024-03-22T02:17:37;2.58;;;0.70;;
51467;SDS011;37545;45.302;-122.946;2024-03-22T02:20:06;1.35;;;0.70;;
51467;SDS011;37545;45.302;-122.946;2024-03-22T02:22:37;1.15;;;0.70;;
51467;SDS011;37545;45.302;-122.946;2024-03-22T02:25:08;2.55;;;0.60;;
51467;SDS011;37545;45.302;-122.946;2024-03-22T02:27:35;1.10;;;0.55;;
51467;SDS011;37545;45.302;-122.946;2024-03-22T02:30:07;1.85;;;0.82;;
51467;SDS011;37545;45.302;-122.946;2024-03-22T02:32:38;3.00;;;1.10;;
51467;SDS011;37545;45.302;-122.946;2024-03-22T02:35:09;1.60;;;0.88;;
51467;SDS011;37545;45.302;-122.946;2024-03-22T02:37:37;1.42;;;1.02;;
51467;SDS011;37545;45.302;-122.946;2024-03-22T02:40:14;1.95;;;1.10;;
51467;SDS011;37545;45.302;-122.946;2024-03-22T02:42:45;3.83;;;1.45;;
51467;SDS011;37545;45.302;-122.946;2024-03-22T02:45:13;2.85;;;1.73;;
51467;SDS011;37545;45.302;-122.946;2024-03-22T02:47:41;4.72;;;1.70;;
51467;SDS011;37545;45.302;-122.946;2024-03-22T02:50:09;3.47;;;1.92;;
51467;SDS011;37545;45.302;-122.946;2024-03-22T02:52:37;6.28;;;2.10;;
51467;SDS011;37545;45.302;-122.946;2024-03-22T02:55:08;3.03;;;2.28;;
51467;SDS011;37545;45.302;-122.946;2024-03-22T02:57:37;5.72;;;2.35;;
51467;SDS011;37545;45.302;-122.946;2024-03-22T03:00:08;7.32;;;2.72;;
51467;SDS011;37545;45.302;-122.946;2024-03-22T03:02:36;6.47;;;2.88;;
51467;SDS011;37545;45.302;-122.946;2024-03-22T03:05:05;5.15;;;2.13;;
51467;SDS011;37545;45.302;-122.946;2024-03-22T03:07:36;6.32;;;2.47;;
51467;SDS011;37545;45.302;-122.946;2024-03-22T03:10:05;2.88;;;1.80;;
51467;SDS011;37545;45.302;-122.946;2024-03-22T03:12:34;2.40;;;1.65;;
51467;SDS011;37545;45.302;-122.946;2024-03-22T03:15:03;2.85;;;1.75;;
51467;SDS011;37545;45.302;-122.946;2024-03-22T03:17:38;3.05;;;1.80;;
51467;SDS011;37545;45.302;-122.946;2024-03-22T03:20:15;2.50;;;1.55;;
51467;SDS011;37545;45.302;-122.946;2024-03-22T03:22:43;4.82;;;2.05;;
51467;SDS011;37545;45.302;-122.946;2024-03-22T03:25:14;2.70;;;1.52;;
51467;SDS011;37545;45.302;-122.946;2024-03-22T03:27:43;3.85;;;1.60;;
51467;SDS011;37545;45.302;-122.946;2024-03-22T03:30:14;2.17;;;1.42;;
51467;SDS011;37545;45.302;-122.946;2024-03-22T03:32:43;4.95;;;1.55;;
51467;SDS011;37545;45.302;-122.946;2024-03-22T03:35:10;2.50;;;1.55;;
51467;SDS011;37545;45.302;-122.946;2024-03-22T03:37:41;3.95;;;1.85;;
51467;SDS011;37545;45.302;-122.946;2024-03-22T03:40:08;2.78;;;1.85;;
51467;SDS011;37545;45.302;-122.946;2024-03-22T03:42:37;3.63;;;2.03;;
51467;SDS011;37545;45.302;-122.946;2024-03-22T03:45:07;4.63;;;1.70;;
51467;SDS011;37545;45.302;-122.946;2024-03-22T03:47:51;4.80;;;1.80;;
51467;SDS011;37545;45.302;-122.946;2024-03-22T03:50:18;3.42;;;1.50;;
51467;SDS011;37545;45.302;-122.946;2024-03-22T03:53:01;3.83;;;2.13;;
51467;SDS011;37545;45.302;-122.946;2024-03-22T03:55:28;3.65;;;1.80;;
51467;SDS011;37545;45.302;-122.946;2024-03-22T03:57:57;4.60;;;1.70;;
51467;SDS011;37545;45.302;-122.946;2024-03-22T04:00:26;5.38;;;2.00;;
51467;SDS011;37545;45.302;-122.946;2024-03-22T04:02:58;5.07;;;2.53;;
51467;SDS011;37545;45.302;-122.946;2024-03-22T04:05:25;5.78;;;2.30;;
51467;SDS011;37545;45.302;-122.946;2024-03-22T04:07:54;3.60;;;2.63;;
51467;SDS011;37545;45.302;-122.946;2024-03-22T04:10:21;4.05;;;2.22;;
51467;SDS011;37545;45.302;-122.946;2024-03-22T04:12:50;2.15;;;1.60;;
51467;SDS011;37545;45.302;-122.946;2024-03-22T04:15:18;7.00;;;2.15;;
51467;SDS011;37545;45.302;-122.946;2024-03-22T04:17:49;6.30;;;2.08;;
51467;SDS011;37545;45.302;-122.946;2024-03-22T04:20:16;4.20;;;2.30;;
51467;SDS011;37545;45.302;-122.946;2024-03-22T04:22:50;3.28;;;1.85;;
51467;SDS011;37545;45.302;-122.946;2024-03-22T04:25:18;4.47;;;2.03;;
51467;SDS011;37545;45.302;-122.946;2024-03-22T04:27:46;3.70;;;1.67;;
51467;SDS011;37545;45.302;-122.946;2024-03-22T04:30:14;3.53;;;1.55;;
51467;SDS011;37545;45.302;-122.946;2024-03-22T04:32:45;6.40;;;1.70;;
51467;SDS011;37545;45.302;-122.946;2024-03-22T04:35:14;4.80;;;2.00;;
51467;SDS011;37545;45.302;-122.946;2024-03-22T04:37:43;4.53;;;1.50;;
51467;SDS011;37545;45.302;-122.946;2024-03-22T04:40:14;3.65;;;1.90;;
51467;SDS011;37545;45.302;-122.946;2024-03-22T04:42:43;3.55;;;1.67;;
51467;SDS011;37545;45.302;-122.946;2024-03-22T04:45:12;2.83;;;1.70;;
51467;SDS011;37545;45.302;-122.946;2024-03-22T04:47:40;4.03;;;1.50;;
51467;SDS011;37545;45.302;-122.946;2024-03-22T04:50:10;2.30;;;1.40;;
51467;SDS011;37545;45.302;-122.946;2024-03-22T04:52:40;2.85;;;1.42;;
51467;SDS011;37545;45.302;-122.946;2024-03-22T04:55:07;3.20;;;1.60;;
51467;SDS011;37545;45.302;-122.946;2024-03-22T04:57:36;1.92;;;1.13;;
51467;SDS011;37545;45.302;-122.946;2024-03-22T05:00:04;2.90;;;1.75;;
51467;SDS011;37545;45.302;-122.946;2024-03-22T05:02:38;4.13;;;1.80;;
51467;SDS011;37545;45.302;-122.946;2024-03-22T05:05:06;4.60;;;1.45;;
51467;SDS011;37545;45.302;-122.946;2024-03-22T05:07:37;6.78;;;1.77;;
51467;SDS011;37545;45.302;-122.946;2024-03-22T05:10:04;3.65;;;1.55;;
51467;SDS011;37545;45.302;-122.946;2024-03-22T05:12:34;2.85;;;1.60;;
51467;SDS011;37545;45.302;-122.946;2024-03-22T05:15:02;2.60;;;1.83;;
51467;SDS011;37545;45.302;-122.946;2024-03-22T05:17:31;2.63;;;1.58;;
51467;SDS011;37545;45.302;-122.946;2024-03-22T05:19:58;2.03;;;1.20;;
51467;SDS011;37545;45.302;-122.946;2024-03-22T05:22:27;3.15;;;1.70;;
51467;SDS011;37545;45.302;-122.946;2024-03-22T05:24:56;2.40;;;1.60;;
51467;SDS011;37545;45.302;-122.946;2024-03-22T05:29:54;2.35;;;1.45;;
51467;SDS011;37545;45.302;-122.946;2024-03-22T05:32:22;1.50;;;1.30;;
51467;SDS011;37545;45.302;-122.946;2024-03-22T05:34:50;3.72;;;1.40;;
51467;SDS011;37545;45.302;-122.946;2024-03-22T05:37:18;3.15;;;1.58;;
51467;SDS011;37545;45.302;-122.946;2024-03-22T05:39:48;1.67;;;1.20;;
51467;SDS011;37545;45.302;-122.946;2024-03-22T05:42:18;4.20;;;1.70;;
51467;SDS011;37545;45.302;-122.946;2024-03-22T05:44:46;2.35;;;1.50;;
51467;SDS011;37545;45.302;-122.946;2024-03-22T05:47:15;5.68;;;1.30;;
51467;SDS011;37545;45.302;-122.946;2024-03-22T05:49:44;2.55;;;1.60;;
51467;SDS011;37545;45.302;-122.946;2024-03-22T05:52:13;2.70;;;1.48;;
51467;SDS011;37545;45.302;-122.946;2024-03-22T05:54:40;5.10;;;1.50;;
51467;SDS011;37545;45.302;-122.946;2024-03-22T05:57:09;1.50;;;1.20;;
51467;SDS011;37545;45.302;-122.946;2024-03-22T05:59:39;5.43;;;1.80;;
51467;SDS011;37545;45.302;-122.946;2024-03-22T06:02:07;3.22;;;1.40;;
51467;SDS011;37545;45.302;-122.946;2024-03-22T06:04:35;4.47;;;1.33;;
51467;SDS011;37545;45.302;-122.946;2024-03-22T06:07:03;1.45;;;1.20;;
51467;SDS011;37545;45.302;-122.946;2024-03-22T06:09:32;2.83;;;1.40;;
51467;SDS011;37545;45.302;-122.946;2024-03-22T06:12:11;4.55;;;1.33;;
51467;SDS011;37545;45.302;-122.946;2024-03-22T06:14:41;2.45;;;1.20;;
51467;SDS011;37545;45.302;-122.946;2024-03-22T06:17:10;2.22;;;1.38;;
51467;SDS011;37545;45.302;-122.946;2024-03-22T06:19:37;2.15;;;1.35;;
51467;SDS011;37545;45.302;-122.946;2024-03-22T06:22:06;2.38;;;1.58;;
51467;SDS011;37545;45.302;-122.946;2024-03-22T06:24:33;2.58;;;1.40;;
51467;SDS011;37545;45.302;-122.946;2024-03-22T06:27:02;2.88;;;1.63;;
51467;SDS011;37545;45.302;-122.946;2024-03-22T06:29:29;3.05;;;1.63;;
51467;SDS011;37545;45.302;-122.946;2024-03-22T06:31:59;3.25;;;1.10;;
51467;SDS011;37545;45.302;-122.946;2024-03-22T06:34:27;3.33;;;1.27;;
51467;SDS011;37545;45.302;-122.946;2024-03-22T06:36:55;2.65;;;1.58;;
51467;SDS011;37545;45.302;-122.946;2024-03-22T06:39:23;1.95;;;1.00;;
51467;SDS011;37545;45.302;-122.946;2024-03-22T06:41:54;3.22;;;1.25;;
51467;SDS011;37545;45.302;-122.946;2024-03-22T06:44:22;1.38;;;1.27;;
51467;SDS011;37545;45.302;-122.946;2024-03-22T06:46:50;2.22;;;1.30;;
51467;SDS011;37545;45.302;-122.946;2024-03-22T06:49:19;2.63;;;1.42;;
51467;SDS011;37545;45.302;-122.946;2024-03-22T06:51:48;2.42;;;1.15;;
51467;SDS011;37545;45.302;-122.946;2024-03-22T06:54:18;2.58;;;1.00;;
51467;SDS011;37545;45.302;-122.946;2024-03-22T06:56:47;4.57;;;1.38;;
51467;SDS011;37545;45.302;-122.946;2024-03-22T06:59:14;3.40;;;1.50;;
51467;SDS011;37545;45.302;-122.946;2024-03-22T07:01:43;3.08;;;1.50;;
51467;SDS011;37545;45.302;-122.946;2024-03-22T07:04:11;1.88;;;1.27;;
51467;SDS011;37545;45.302;-122.946;2024-03-22T07:06:41;3.05;;;1.20;;
51467;SDS011;37545;45.302;-122.946;2024-03-22T07:09:08;2.08;;;1.40;;
51467;SDS011;37545;45.302;-122.946;2024-03-22T07:11:37;4.00;;;1.80;;
51467;SDS011;37545;45.302;-122.946;2024-03-22T07:14:05;1.75;;;1.33;;
51467;SDS011;37545;45.302;-122.946;2024-03-22T07:16:33;3.08;;;1.17;;
51467;SDS011;37545;45.302;-122.946;2024-03-22T07:19:02;6.28;;;1.70;;
51467;SDS011;37545;45.302;-122.946;2024-03-22T07:21:31;1.67;;;1.20;;
51467;SDS011;37545;45.302;-122.946;2024-03-22T07:24:00;3.10;;;1.50;;
51467;SDS011;37545;45.302;-122.946;2024-03-22T07:26:29;2.15;;;1.42;;
51467;SDS011;37545;45.302;-122.946;2024-03-22T07:28:56;4.10;;;1.50;;
51467;SDS011;37545;45.302;-122.946;2024-03-22T07:31:25;5.63;;;1.80;;
51467;SDS011;37545;45.302;-122.946;2024-03-22T07:33:53;2.90;;;1.13;;
51467;SDS011;37545;45.302;-122.946;2024-03-22T07:36:22;5.97;;;1.80;;
51467;SDS011;37545;45.302;-122.946;2024-03-22T07:38:49;3.45;;;1.73;;
51467;SDS011;37545;45.302;-122.946;2024-03-22T07:41:19;5.05;;;2.10;;
51467;SDS011;37545;45.302;-122.946;2024-03-22T07:43:49;4.07;;;1.95;;
51467;SDS011;37545;45.302;-122.946;2024-03-22T07:46:17;3.38;;;1.83;;
51467;SDS011;37545;45.302;-122.946;2024-03-22T07:48:45;3.10;;;1.80;;
51467;SDS011;37545;45.302;-122.946;2024-03-22T07:51:13;6.00;;;2.42;;
51467;SDS011;37545;45.302;-122.946;2024-03-22T07:53:41;4.32;;;2.10;;
51467;SDS011;37545;45.302;-122.946;2024-03-22T07:56:09;5.97;;;2.33;;
51467;SDS011;37545;45.302;-122.946;2024-03-22T07:58:39;4.78;;;2.00;;
51467;SDS011;37545;45.302;-122.946;2024-03-22T08:01:09;4.00;;;2.00;;
51467;SDS011;37545;45.302;-122.946;2024-03-22T08:03:36;9.05;;;2.13;;
51467;SDS011;37545;45.302;-122.946;2024-03-22T08:06:05;6.65;;;2.20;;
51467;SDS011;37545;45.302;-122.946;2024-03-22T08:08:34;6.03;;;2.63;;
51467;SDS011;37545;45.302;-122.946;2024-03-22T08:11:03;9.20;;;2.22;;
51467;SDS011;37545;45.302;-122.946;2024-03-22T08:13:30;4.90;;;2.55;;
51467;SDS011;37545;45.302;-122.946;2024-03-22T08:16:01;4.95;;;2.78;;
51467;SDS011;37545;45.302;-122.946;2024-03-22T08:18:28;5.60;;;2.33;;
51467;SDS011;37545;45.302;-122.946;2024-03-22T08:20:58;4.63;;;2.28;;
51467;SDS011;37545;45.302;-122.946;2024-03-22T08:23:25;3.45;;;1.75;;
51467;SDS011;37545;45.302;-122.946;2024-03-22T08:25:54;3.03;;;2.00;;
51467;SDS011;37545;45.302;-122.946;2024-03-22T08:28:23;3.83;;;2.13;;
51467;SDS011;37545;45.302;-122.946;2024-03-22T08:30:51;2.50;;;1.55;;
51467;SDS011;37545;45.302;-122.946;2024-03-22T08:33:20;3.53;;;2.15;;
51467;SDS011;37545;45.302;-122.946;2024-03-22T08:35:49;4.30;;;1.80;;
51467;SDS011;37545;45.302;-122.946;2024-03-22T08:38:16;5.22;;;2.03;;
51467;SDS011;37545;45.302;-122.946;2024-03-22T08:40:45;3.38;;;2.03;;
51467;SDS011;37545;45.302;-122.946;2024-03-22T08:43:13;5.82;;;2.33;;
51467;SDS011;37545;45.302;-122.946;2024-03-22T08:45:42;4.75;;;2.13;;
51467;SDS011;37545;45.302;-122.946;2024-03-22T08:48:09;2.80;;;1.50;;
51467;SDS011;37545;45.302;-122.946;2024-03-22T08:50:39;3.03;;;1.70;;
51467;SDS011;37545;45.302;-122.946;2024-03-22T08:53:09;3.10;;;1.35;;
51467;SDS011;37545;45.302;-122.946;2024-03-22T08:55:37;3.28;;;1.60;;
51467;SDS011;37545;45.302;-122.946;2024-03-22T08:58:05;4.35;;;1.90;;
51467;SDS011;37545;45.302;-122.946;2024-03-22T09:00:33;3.08;;;1.50;;
51467;SDS011;37545;45.302;-122.946;2024-03-22T09:03:01;2.75;;;1.90;;
51467;SDS011;37545;45.302;-122.946;2024-03-22T09:05:30;4.10;;;1.95;;
51467;SDS011;37545;45.302;-122.946;2024-03-22T09:08:00;4.25;;;1.98;;
51467;SDS011;37545;45.302;-122.946;2024-03-22T09:10:29;3.85;;;1.95;;
51467;SDS011;37545;45.302;-122.946;2024-03-22T09:12:56;3.03;;;1.10;;
51467;SDS011;37545;45.302;-122.946;2024-03-22T09:15:25;5.40;;;1.67;;
51467;SDS011;37545;45.302;-122.946;2024-03-22T09:17:52;3.22;;;1.17;;
51467;SDS011;37545;45.302;-122.946;2024-03-22T09:20:21;3.95;;;1.48;;
51467;SDS011;37545;45.302;-122.946;2024-03-22T09:22:49;4.15;;;1.90;;
51467;SDS011;37545;45.302;-122.946;2024-03-22T09:25:19;2.75;;;1.45;;
51467;SDS011;37545;45.302;-122.946;2024-03-22T09:27:48;1.80;;;1.20;;
51467;SDS011;37545;45.302;-122.946;2024-03-22T09:30:17;2.65;;;1.15;;
51467;SDS011;37545;45.302;-122.946;2024-03-22T09:32:45;2.80;;;1.30;;
51467;SDS011;37545;45.302;-122.946;2024-03-22T09:35:13;2.25;;;1.35;;
51467;SDS011;37545;45.302;-122.946;2024-03-22T09:37:43;2.70;;;1.40;;
51467;SDS011;37545;45.302;-122.946;2024-03-22T09:40:11;3.05;;;1.65;;
51467;SDS011;37545;45.302;-122.946;2024-03-22T09:42:41;3.08;;;1.35;;
51467;SDS011;37545;45.302;-122.946;2024-03-22T09:45:09;2.30;;;1.25;;
51467;SDS011;37545;45.302;-122.946;2024-03-22T09:47:38;2.65;;;1.35;;
51467;SDS011;37545;45.302;-122.946;2024-03-22T09:50:10;1.52;;;1.17;;
51467;SDS011;37545;45.302;-122.946;2024-03-22T09:52:38;2.10;;;1.20;;
51467;SDS011;37545;45.302;-122.946;2024-03-22T09:55:09;2.22;;;1.38;;
51467;SDS011;37545;45.302;-122.946;2024-03-22T09:57:37;2.20;;;1.40;;
51467;SDS011;37545;45.302;-122.946;2024-03-22T10:00:09;1.15;;;1.00;;
51467;SDS011;37545;45.302;-122.946;2024-03-22T10:02:39;4.68;;;1.02;;
51467;SDS011;37545;45.302;-122.946;2024-03-22T10:05:09;3.45;;;1.30;;
51467;SDS011;37545;45.302;-122.946;2024-03-22T10:07:37;1.42;;;1.00;;
51467;SDS011;37545;45.302;-122.946;2024-03-22T10:10:06;2.30;;;1.13;;
51467;SDS011;37545;45.302;-122.946;2024-03-22T10:12:36;2.60;;;1.20;;
51467;SDS011;37545;45.302;-122.946;2024-03-22T10:15:05;1.90;;;1.35;;
51467;SDS011;37545;45.302;-122.946;2024-03-22T10:17:34;1.48;;;1.10;;
51467;SDS011;37545;45.302;-122.946;2024-03-22T10:20:03;2.22;;;1.13;;
51467;SDS011;37545;45.302;-122.946;2024-03-22T10:22:35;1.40;;;1.02;;
51467;SDS011;37545;45.302;-122.946;2024-03-22T10:25:04;3.83;;;1.17;;
51467;SDS011;37545;45.302;-122.946;2024-03-22T10:27:32;1.48;;;0.90;;
51467;SDS011;37545;45.302;-122.946;2024-03-22T10:30:01;2.78;;;0.95;;
51467;SDS011;37545;45.302;-122.946;2024-03-22T10:32:30;2.45;;;1.33;;
51467;SDS011;37545;45.302;-122.946;2024-03-22T10:35:06;6.10;;;1.13;;
51467;SDS011;37545;45.302;-122.946;2024-03-22T10:37:36;2.65;;;1.30;;
51467;SDS011;37545;45.302;-122.946;2024-03-22T10:40:05;5.53;;;1.30;;
51467;SDS011;37545;45.302;-122.946;2024-03-22T10:42:33;1.58;;;1.00;;
51467;SDS011;37545;45.302;-122.946;2024-03-22T10:45:02;1.63;;;0.90;;
51467;SDS011;37545;45.302;-122.946;2024-03-22T10:47:33;1.83;;;1.27;;
51467;SDS011;37545;45.302;-122.946;2024-03-22T10:50:04;2.97;;;1.50;;
51467;SDS011;37545;45.302;-122.946;2024-03-22T10:52:37;2.17;;;1.30;;
51467;SDS011;37545;45.302;-122.946;2024-03-22T10:55:11;4.20;;;0.93;;
51467;SDS011;37545;45.302;-122.946;2024-03-22T10:57:43;0.85;;;0.80;;
51467;SDS011;37545;45.302;-122.946;2024-03-22T11:00:13;1.85;;;1.08;;
51467;SDS011;37545;45.302;-122.946;2024-03-22T11:02:45;4.18;;;1.30;;
51467;SDS011;37545;45.302;-122.946;2024-03-22T11:05:16;1.80;;;1.33;;
51467;SDS011;37545;45.302;-122.946;2024-03-22T11:07:43;2.33;;;1.13;;
51467;SDS011;37545;45.302;-122.946;2024-03-22T11:10:13;4.05;;;1.20;;
51467;SDS011;37545;45.302;-122.946;2024-03-22T11:12:42;3.25;;;1.20;;
51467;SDS011;37545;45.302;-122.946;2024-03-22T11:15:15;7.32;;;1.63;;
51467;SDS011;37545;45.302;-122.946;2024-03-22T11:17:46;3.90;;;1.60;;
51467;SDS011;37545;45.302;-122.946;2024-03-22T11:20:15;1.70;;;1.15;;
51467;SDS011;37545;45.302;-122.946;2024-03-22T11:22:42;4.25;;;1.55;;
51467;SDS011;37545;45.302;-122.946;2024-03-22T11:25:13;4.85;;;1.30;;
51467;SDS011;37545;45.302;-122.946;2024-03-22T11:27:41;3.17;;;1.40;;
51467;SDS011;37545;45.302;-122.946;2024-03-22T11:30:10;4.97;;;1.50;;
51467;SDS011;37545;45.302;-122.946;2024-03-22T11:32:37;3.72;;;2.03;;
51467;SDS011;37545;45.302;-122.946;2024-03-22T11:35:15;2.05;;;1.20;;
51467;SDS011;37545;45.302;-122.946;2024-03-22T11:37:42;2.50;;;1.65;;
51467;SDS011;37545;45.302;-122.946;2024-03-22T11:40:11;2.35;;;1.33;;
51467;SDS011;37545;45.302;-122.946;2024-03-22T11:42:38;3.42;;;1.38;;
51467;SDS011;37545;45.302;-122.946;2024-03-22T11:45:09;2.78;;;1.15;;
51467;SDS011;37545;45.302;-122.946;2024-03-22T11:47:38;2.35;;;1.13;;
51467;SDS011;37545;45.302;-122.946;2024-03-22T11:50:08;3.72;;;1.25;;
51467;SDS011;37545;45.302;-122.946;2024-03-22T11:52:41;1.63;;;1.30;;
51467;SDS011;37545;45.302;-122.946;2024-03-22T11:55:12;1.77;;;1.23;;
51467;SDS011;37545;45.302;-122.946;2024-03-22T11:57:47;1.30;;;1.10;;
51467;SDS011;37545;45.302;-122.946;2024-03-22T12:00:16;3.05;;;1.40;;
51467;SDS011;37545;45.302;-122.946;2024-03-22T12:02:49;2.75;;;1.48;;
51467;SDS011;37545;45.302;-122.946;2024-03-22T12:05:17;1.98;;;1.27;;
51467;SDS011;37545;45.302;-122.946;2024-03-22T12:07:47;2.10;;;1.00;;
51467;SDS011;37545;45.302;-122.946;2024-03-22T12:10:15;1.83;;;1.13;;
51467;SDS011;37545;45.302;-122.946;2024-03-22T12:12:43;3.30;;;1.15;;
51467;SDS011;37545;45.302;-122.946;2024-03-22T12:15:11;3.67;;;1.55;;
51467;SDS011;37545;45.302;-122.946;2024-03-22T12:17:39;2.47;;;1.25;;
51467;SDS011;37545;45.302;-122.946;2024-03-22T12:20:09;2.45;;;1.10;;
51467;SDS011;37545;45.302;-122.946;2024-03-22T12:22:40;2.35;;;1.20;;
51467;SDS011;37545;45.302;-122.946;2024-03-22T12:25:10;3.90;;;1.50;;
51467;SDS011;37545;45.302;-122.946;2024-03-22T12:27:38;4.07;;;1.48;;
51467;SDS011;37545;45.302;-122.946;2024-03-22T12:30:06;1.60;;;0.80;;
51467;SDS011;37545;45.302;-122.946;2024-03-22T12:32:35;3.67;;;1.30;;
51467;SDS011;37545;45.302;-122.946;2024-03-22T12:35:03;1.73;;;1.20;;
51467;SDS011;37545;45.302;-122.946;2024-03-22T12:37:33;5.30;;;1.20;;
51467;SDS011;37545;45.302;-122.946;2024-03-22T12:40:01;2.38;;;1.50;;
51467;SDS011;37545;45.302;-122.946;2024-03-22T12:42:35;3.25;;;1.25;;
51467;SDS011;37545;45.302;-122.946;2024-03-22T12:45:04;4.22;;;1.88;;
51467;SDS011;37545;45.302;-122.946;2024-03-22T12:47:32;2.33;;;1.50;;
51467;SDS011;37545;45.302;-122.946;2024-03-22T12:50:01;4.28;;;1.73;;
51467;SDS011;37545;45.302;-122.946;2024-03-22T12:52:30;2.15;;;1.30;;
51467;SDS011;37545;45.302;-122.946;2024-03-22T12:54:59;2.08;;;1.48;;
51467;SDS011;37545;45.302;-122.946;2024-03-22T12:57:26;1.88;;;1.63;;
51467;SDS011;37545;45.302;-122.946;2024-03-22T12:59:57;2.58;;;1.33;;
51467;SDS011;37545;45.302;-122.946;2024-03-22T13:02:24;4.57;;;1.63;;
51467;SDS011;37545;45.302;-122.946;2024-03-22T13:04:53;3.22;;;1.48;;
51467;SDS011;37545;45.302;-122.946;2024-03-22T13:07:22;2.83;;;1.63;;
51467;SDS011;37545;45.302;-122.946;2024-03-22T13:09:51;3.13;;;1.92;;
51467;SDS011;37545;45.302;-122.946;2024-03-22T13:12:18;2.75;;;1.45;;
51467;SDS011;37545;45.302;-122.946;2024-03-22T13:14:47;2.08;;;1.45;;
51467;SDS011;37545;45.302;-122.946;2024-03-22T13:17:16;2.47;;;1.52;;
51467;SDS011;37545;45.302;-122.946;2024-03-22T13:19:49;2.55;;;1.55;;
51467;SDS011;37545;45.302;-122.946;2024-03-22T13:22:16;2.90;;;1.35;;
51467;SDS011;37545;45.302;-122.946;2024-03-22T13:24:45;2.65;;;1.75;;
51467;SDS011;37545;45.302;-122.946;2024-03-22T13:27:13;3.28;;;1.83;;
51467;SDS011;37545;45.302;-122.946;2024-03-22T13:29:45;2.17;;;1.33;;
51467;SDS011;37545;45.302;-122.946;2024-03-22T13:32:13;2.80;;;1.80;;
51467;SDS011;37545;45.302;-122.946;2024-03-22T13:34:43;3.15;;;1.80;;
51467;SDS011;37545;45.302;-122.946;2024-03-22T13:37:10;2.92;;;1.60;;
51467;SDS011;37545;45.302;-122.946;2024-03-22T13:39:39;3.70;;;1.95;;
51467;SDS011;37545;45.302;-122.946;2024-03-22T13:42:06;4.63;;;1.50;;
51467;SDS011;37545;45.302;-122.946;2024-03-22T13:44:37;3.28;;;1.75;;
51467;SDS011;37545;45.302;-122.946;2024-03-22T13:47:06;2.53;;;1.33;;
51467;SDS011;37545;45.302;-122.946;2024-03-22T13:49:33;2.45;;;1.80;;
51467;SDS011;37545;45.302;-122.946;2024-03-22T13:52:05;3.17;;;1.77;;
51467;SDS011;37545;45.302;-122.946;2024-03-22T13:54:40;3.05;;;1.73;;
51467;SDS011;37545;45.302;-122.946;2024-03-22T13:57:09;3.00;;;1.92;;
51467;SDS011;37545;45.302;-122.946;2024-03-22T13:59:36;3.58;;;1.75;;
51467;SDS011;37545;45.302;-122.946;2024-03-22T14:02:07;2.72;;;1.65;;
51467;SDS011;37545;45.302;-122.946;2024-03-22T14:04:34;2.63;;;1.50;;
51467;SDS011;37545;45.302;-122.946;2024-03-22T14:07:05;2.20;;;1.00;;
51467;SDS011;37545;45.302;-122.946;2024-03-22T14:09:33;1.60;;;1.05;;
51467;SDS011;37545;45.302;-122.946;2024-03-22T14:12:02;2.13;;;1.00;;
51467;SDS011;37545;45.302;-122.946;2024-03-22T14:14:30;3.90;;;1.10;;
51467;SDS011;37545;45.302;-122.946;2024-03-22T14:17:01;1.30;;;1.00;;
51467;SDS011;37545;45.302;-122.946;2024-03-22T14:19:29;3.05;;;1.20;;
51467;SDS011;37545;45.302;-122.946;2024-03-22T14:21:57;1.52;;;1.30;;